createdAt,value
2023-01-07T00:01:20.885Z,62.29
2023-01-07T00:03:48.595Z,62.23
2023-01-07T00:06:21.657Z,61.57
2023-01-07T00:08:50.098Z,62.31
2023-01-07T00:11:22.118Z,62.38
2023-01-07T00:13:50.367Z,62.21
2023-01-07T00:16:19.092Z,62.38
2023-01-07T00:18:46.628Z,62.17
2023-01-07T00:21:16.387Z,62.20
2023-01-07T00:23:44.408Z,62.11
2023-01-07T00:26:15.176Z,62.22
2023-01-07T00:28:43.853Z,62.06
2023-01-07T00:31:16.137Z,61.94
2023-01-07T00:33:53.873Z,61.94
2023-01-07T00:36:22.050Z,62.26
2023-01-07T00:38:48.553Z,62.22
2023-01-07T00:41:15.027Z,62.04
2023-01-07T00:43:41.474Z,62.26
2023-01-07T00:46:10.202Z,62.32
2023-01-07T00:48:36.724Z,62.35
2023-01-07T00:51:03.294Z,62.40
2023-01-07T00:53:30.401Z,62.35
2023-01-07T00:55:56.948Z,62.33
2023-01-07T00:58:25.388Z,62.63
2023-01-07T01:00:58.907Z,62.44
2023-01-07T01:03:27.752Z,62.56
2023-01-07T01:05:54.819Z,62.59
2023-01-07T01:08:22.309Z,62.70
2023-01-07T01:10:48.729Z,62.68
2023-01-07T01:13:18.405Z,62.42
2023-01-07T01:15:46.894Z,62.63
2023-01-07T01:18:14.385Z,63.01
2023-01-07T01:20:41.381Z,62.79
2023-01-07T01:23:08.512Z,62.75
2023-01-07T01:25:35.014Z,62.85
2023-01-07T01:28:01.475Z,62.65
2023-01-07T01:30:28.010Z,63.03
2023-01-07T01:32:54.471Z,62.66
2023-01-07T01:35:20.936Z,62.85
2023-01-07T01:37:47.559Z,62.54
2023-01-07T01:40:14.571Z,62.77
2023-01-07T01:42:41.157Z,62.54
2023-01-07T01:45:07.972Z,62.41
2023-01-07T01:47:48.960Z,60.89
2023-01-07T01:50:24.000Z,61.81
2023-01-07T01:52:50.388Z,61.98
2023-01-07T01:55:19.582Z,62.17
2023-01-07T01:57:48.755Z,62.47
2023-01-07T02:00:16.715Z,62.32
2023-01-07T02:02:57.192Z,62.04
2023-01-07T02:05:32.573Z,62.33
2023-01-07T02:07:59.083Z,62.33
2023-01-07T02:10:26.980Z,62.24
2023-01-07T02:13:17.279Z,61.92
2023-01-07T02:16:11.434Z,61.77
2023-01-07T02:19:17.122Z,61.52
2023-01-07T02:21:49.709Z,61.63
2023-01-07T02:24:43.954Z,61.41
2023-01-07T02:27:21.052Z,61.69
2023-01-07T02:29:54.520Z,60.43
2023-01-07T02:32:39.421Z,60.97
2023-01-07T02:35:27.159Z,61.45
2023-01-07T02:38:05.712Z,61.29
2023-01-07T02:40:50.601Z,60.95
2023-01-07T02:43:29.572Z,61.68
2023-01-07T02:46:12.299Z,61.11
2023-01-07T02:48:39.480Z,61.75
2023-01-07T02:51:05.970Z,61.63
2023-01-07T02:53:33.380Z,61.45
2023-01-07T02:56:44.403Z,61.31
2023-01-07T02:59:41.574Z,61.13
2023-01-07T03:02:31.203Z,61.43
2023-01-07T03:05:10.021Z,61.19
2023-01-07T03:07:53.648Z,61.55
2023-01-07T03:10:42.161Z,62.18
2023-01-07T03:13:16.749Z,61.80
2023-01-07T03:15:51.079Z,62.02
2023-01-07T03:18:23.862Z,62.09
2023-01-07T03:20:55.999Z,62.30
2023-01-07T03:23:25.626Z,62.19
2023-01-07T03:25:54.492Z,62.38
2023-01-07T03:28:25.879Z,62.27
2023-01-07T03:30:54.632Z,62.09
2023-01-07T03:33:35.393Z,61.85
2023-01-07T03:36:06.743Z,62.39
2023-01-07T03:38:34.986Z,62.27
2023-01-07T03:41:01.937Z,62.28
2023-01-07T03:43:28.382Z,61.97
2023-01-07T03:45:57.807Z,62.19
2023-01-07T03:48:24.474Z,62.30
2023-01-07T03:50:50.940Z,62.45
2023-01-07T03:53:17.433Z,62.53
2023-01-07T03:55:43.891Z,62.32
2023-01-07T03:58:10.333Z,62.45
2023-01-07T04:00:36.849Z,62.40
2023-01-07T04:03:03.294Z,62.54
2023-01-07T04:05:29.800Z,62.66
2023-01-07T04:07:56.289Z,62.41
2023-01-07T04:10:22.822Z,62.52
2023-01-07T04:12:49.330Z,62.28
2023-01-07T04:15:15.856Z,62.30
2023-01-07T04:17:42.401Z,62.38
2023-01-07T04:20:10.340Z,62.29
2023-01-07T04:22:36.905Z,62.28
2023-01-07T04:25:03.730Z,62.62
2023-01-07T04:27:30.922Z,62.20
2023-01-07T04:29:57.398Z,62.51
2023-01-07T04:32:23.907Z,62.28
2023-01-07T04:34:50.357Z,61.92
2023-01-07T04:37:16.891Z,62.10
2023-01-07T04:39:43.326Z,61.86
2023-01-07T04:42:09.818Z,61.85
2023-01-07T04:44:36.263Z,61.75
2023-01-07T04:47:02.777Z,61.74
2023-01-07T04:49:29.265Z,61.82
2023-01-07T04:51:55.735Z,61.67
2023-01-07T04:54:22.190Z,61.81
2023-01-07T04:56:48.664Z,61.92
2023-01-07T04:59:15.131Z,61.89
2023-01-07T05:01:41.669Z,61.59
2023-01-07T05:04:08.208Z,60.38
2023-01-07T05:06:34.710Z,61.54
2023-01-07T05:09:01.173Z,61.33
2023-01-07T05:11:27.647Z,61.54
2023-01-07T05:13:54.159Z,61.40
2023-01-07T05:16:20.686Z,61.41
2023-01-07T06:19:13.690Z,60.47
2023-01-07T06:21:40.218Z,60.40
2023-01-07T06:24:07.338Z,60.87
2023-01-07T06:26:33.918Z,60.54
2023-01-07T06:29:00.393Z,60.48
2023-01-07T06:31:26.882Z,60.51
2023-01-07T06:33:53.343Z,60.60
2023-01-07T06:36:19.819Z,60.87
2023-01-07T06:38:46.326Z,60.47
2023-01-07T06:41:12.840Z,60.64
2023-01-07T06:43:39.296Z,60.46
2023-01-07T06:46:06.097Z,60.57
2023-01-07T06:48:32.589Z,60.40
2023-01-07T06:50:59.019Z,60.60
2023-01-07T06:53:25.578Z,60.64
2023-01-07T06:55:52.111Z,60.33
2023-01-07T06:58:18.919Z,60.60
2023-01-07T07:00:45.445Z,60.46
2023-01-07T07:03:12.092Z,60.53
2023-01-07T07:05:38.931Z,59.63
2023-01-07T07:08:06.424Z,60.04
2023-01-07T07:10:33.507Z,60.23
2023-01-07T07:13:00.002Z,60.20
2023-01-07T07:15:26.496Z,60.40
2023-01-07T07:17:52.991Z,60.24
2023-01-07T07:20:19.511Z,60.25
2023-01-07T07:22:46.915Z,59.90
2023-01-07T07:25:14.320Z,59.98
2023-01-07T07:27:40.928Z,59.91
2023-01-07T07:30:08.484Z,59.86
2023-01-07T07:32:35.063Z,59.91
2023-01-07T07:35:01.550Z,60.02
2023-01-07T07:37:28.039Z,59.89
2023-01-07T07:39:54.463Z,59.93
2023-01-07T07:42:20.927Z,59.95
2023-01-07T07:44:47.484Z,59.58
2023-01-07T07:47:13.982Z,59.78
2023-01-07T07:49:40.471Z,59.50
2023-01-07T07:52:07.082Z,59.58
2023-01-07T07:54:33.745Z,59.38
2023-01-07T07:57:00.178Z,59.06
2023-01-07T07:59:26.758Z,59.75
2023-01-07T08:01:53.302Z,59.69
2023-01-07T08:04:19.807Z,59.44
2023-01-07T08:06:46.403Z,59.55
2023-01-07T08:09:13.120Z,59.51
2023-01-07T08:11:39.548Z,59.24
2023-01-07T08:14:06.029Z,59.74
2023-01-07T08:16:32.607Z,59.40
2023-01-07T08:18:59.364Z,59.56
2023-01-07T08:21:25.841Z,59.74
2023-01-07T08:23:52.546Z,59.50
2023-01-07T08:26:18.993Z,58.86
2023-01-07T08:28:46.762Z,59.41
2023-01-07T08:31:13.786Z,59.71
2023-01-07T08:33:40.411Z,59.70
2023-01-07T08:36:18.218Z,59.68
2023-01-07T08:38:53.023Z,59.55
2023-01-07T08:41:23.885Z,59.66
2023-01-07T08:43:50.970Z,59.76
2023-01-07T08:46:17.618Z,59.79
2023-01-07T08:48:44.087Z,59.28
2023-01-07T08:51:10.599Z,59.64
2023-01-07T08:53:37.044Z,59.48
2023-01-07T08:56:03.684Z,59.38
2023-01-07T08:58:30.219Z,59.61
2023-01-07T09:01:05.776Z,59.46
2023-01-07T09:03:32.995Z,59.76
2023-01-07T09:05:59.949Z,59.50
2023-01-07T09:08:26.549Z,59.69
2023-01-07T09:10:53.061Z,59.48
2023-01-07T09:13:19.569Z,59.29
2023-01-07T09:15:46.009Z,59.45
2023-01-07T09:18:12.503Z,59.19
2023-01-07T09:20:38.938Z,59.04
2023-01-07T09:23:05.457Z,59.09
2023-01-07T09:25:31.927Z,58.96
2023-01-07T09:27:58.404Z,58.68
2023-01-07T09:30:24.884Z,58.24
2023-01-07T09:32:51.411Z,58.23
2023-01-07T09:35:18.132Z,58.14
2023-01-07T09:37:44.576Z,58.48
2023-01-07T09:40:27.263Z,57.74
2023-01-07T09:43:26.317Z,57.63
2023-01-07T09:46:13.066Z,57.01
2023-01-07T09:48:44.064Z,57.07
2023-01-07T09:51:35.206Z,57.12
2023-01-07T09:54:04.201Z,57.16
2023-01-07T09:56:33.579Z,56.86
2023-01-07T09:59:01.838Z,56.88
2023-01-07T10:01:34.029Z,56.60
2023-01-07T10:04:34.486Z,57.25
2023-01-07T10:07:20.053Z,57.13
2023-01-07T10:10:05.182Z,56.46
2023-01-07T10:12:54.942Z,57.36
2023-01-07T10:15:58.505Z,57.05
2023-01-07T10:18:38.306Z,56.99
2023-01-07T10:21:18.401Z,56.59
2023-01-07T10:24:03.241Z,56.33
2023-01-07T10:26:46.324Z,56.62
2023-01-07T10:29:39.547Z,56.40
2023-01-07T10:32:17.401Z,56.22
2023-01-07T10:34:50.379Z,55.62
2023-01-07T10:37:27.497Z,55.70
2023-01-07T10:40:06.085Z,55.57
2023-01-07T10:42:47.494Z,55.90
2023-01-07T10:45:47.084Z,55.68
2023-01-07T10:48:16.521Z,54.55
2023-01-07T10:51:03.769Z,55.72
2023-01-07T10:53:59.459Z,54.21
2023-01-07T10:56:32.387Z,54.59
2023-01-07T10:59:04.001Z,54.29
2023-01-07T11:01:37.156Z,54.67
2023-01-07T11:04:05.154Z,54.36
2023-01-07T11:06:38.935Z,54.22
2023-01-07T11:09:10.921Z,54.63
2023-01-07T11:11:38.406Z,54.63
2023-01-07T11:14:15.836Z,54.73
2023-01-07T11:16:51.523Z,54.46
2023-01-07T11:19:18.289Z,54.20
2023-01-07T11:21:52.227Z,54.39
2023-01-07T11:24:34.907Z,54.80
2023-01-07T11:27:10.505Z,54.93
2023-01-07T11:29:42.446Z,54.44
2023-01-07T11:32:22.056Z,54.50
2023-01-07T11:34:57.185Z,54.51
2023-01-07T11:37:33.475Z,54.76
2023-01-07T11:40:17.382Z,54.88
2023-01-07T11:43:01.896Z,54.80
2023-01-07T11:45:31.340Z,53.86
2023-01-07T11:48:09.479Z,54.87
2023-01-07T11:50:44.487Z,55.05
2023-01-07T11:53:13.915Z,53.95
2023-01-07T11:55:54.713Z,54.15
2023-01-07T11:58:29.244Z,54.01
2023-01-07T12:01:09.086Z,54.73
2023-01-07T12:03:40.831Z,54.30
2023-01-07T12:06:16.841Z,53.78
2023-01-07T12:08:52.581Z,54.11
2023-01-07T12:11:19.245Z,53.81
2023-01-07T12:13:52.447Z,54.86
2023-01-07T12:16:28.254Z,54.17
2023-01-07T12:19:00.632Z,54.17
2023-01-07T12:21:33.161Z,53.90
2023-01-07T12:24:18.389Z,54.15
2023-01-07T12:26:54.914Z,54.15
2023-01-07T12:29:26.361Z,54.22
2023-01-07T12:32:23.706Z,54.21
2023-01-07T12:35:14.384Z,53.63
2023-01-07T12:37:54.035Z,53.93
2023-01-07T12:40:32.925Z,53.77
2023-01-07T12:43:11.429Z,52.89
2023-01-07T12:45:46.335Z,53.25
2023-01-07T12:48:27.199Z,53.33
2023-01-07T12:50:57.409Z,52.23
2023-01-07T12:53:47.420Z,52.90
2023-01-07T12:56:20.552Z,52.35
2023-01-07T12:59:05.418Z,52.84
2023-01-07T13:01:40.145Z,52.29
2023-01-07T13:04:16.892Z,51.67
2023-01-07T13:06:53.735Z,52.57
2023-01-07T13:09:47.868Z,52.74
2023-01-07T13:12:47.523Z,52.37
2023-01-07T13:15:33.851Z,52.37
2023-01-07T13:18:21.135Z,52.62
2023-01-07T13:20:57.845Z,52.43
2023-01-07T13:23:33.211Z,52.20
2023-01-07T13:26:11.201Z,52.06
2023-01-07T13:28:56.639Z,51.86
2023-01-07T13:31:51.124Z,52.44
2023-01-07T13:34:42.099Z,52.93
2023-01-07T13:37:23.735Z,52.07
2023-01-07T13:39:58.439Z,52.34
2023-01-07T13:42:32.936Z,52.05
2023-01-07T13:45:13.741Z,52.28
2023-01-07T13:47:45.149Z,51.49
2023-01-07T13:50:22.488Z,51.73
2023-01-07T13:52:57.303Z,51.44
2023-01-07T13:55:34.684Z,51.99
2023-01-07T13:58:02.903Z,51.24
2023-01-07T14:00:38.256Z,51.72
2023-01-07T14:03:05.420Z,51.20
2023-01-07T14:05:31.977Z,51.21
2023-01-07T14:08:01.277Z,51.49
2023-01-07T14:10:33.390Z,51.59
2023-01-07T14:13:34.970Z,52.18
2023-01-07T14:16:32.790Z,51.88
2023-01-07T14:19:20.628Z,52.19
2023-01-07T14:21:46.992Z,52.62
2023-01-07T14:24:45.917Z,51.94
2023-01-07T14:27:50.188Z,51.80
2023-01-07T14:30:35.450Z,51.62
2023-01-07T14:33:04.230Z,50.52
2023-01-07T14:35:40.512Z,51.32
2023-01-07T14:38:40.190Z,51.67
2023-01-07T14:41:13.916Z,50.57
2023-01-07T14:43:40.331Z,50.27
2023-01-07T14:46:24.997Z,51.33
2023-01-07T14:49:03.591Z,50.90
2023-01-07T14:51:32.946Z,50.06
2023-01-07T14:54:41.516Z,51.32
2023-01-07T14:57:26.949Z,50.28
2023-01-07T15:00:31.053Z,51.08
2023-01-07T15:03:09.731Z,50.00
2023-01-07T15:06:00.578Z,50.99
2023-01-07T15:08:53.751Z,49.82
2023-01-07T15:11:43.657Z,50.09
2023-01-07T15:14:50.576Z,51.08
2023-01-07T15:17:17.527Z,50.01
2023-01-07T15:19:44.859Z,50.19
2023-01-07T15:22:22.135Z,49.91
2023-01-07T15:25:33.884Z,51.05
2023-01-07T15:28:22.611Z,50.30
2023-01-07T15:31:13.702Z,50.24
2023-01-07T15:33:52.981Z,50.91
2023-01-07T15:36:20.237Z,49.65
2023-01-07T15:38:53.089Z,49.93
2023-01-07T15:41:40.086Z,50.79
2023-01-07T15:44:23.643Z,50.51
2023-01-07T15:46:50.385Z,49.95
2023-01-07T15:49:23.470Z,50.62
2023-01-07T15:51:57.083Z,50.32
2023-01-07T15:54:31.196Z,50.13
2023-01-07T15:57:02.896Z,50.22
2023-01-07T15:59:34.342Z,50.00
2023-01-07T16:02:27.898Z,50.71
2023-01-07T16:04:59.727Z,50.11
2023-01-07T16:07:34.453Z,50.47
2023-01-07T16:10:04.513Z,50.05
2023-01-07T16:12:39.084Z,50.49
2023-01-07T16:15:41.490Z,50.76
2023-01-07T16:18:11.361Z,49.99
2023-01-07T16:20:50.329Z,50.21
2023-01-07T16:23:22.361Z,57.87
2023-01-07T16:25:54.148Z,50.34
2023-01-07T16:28:54.282Z,51.13
2023-01-07T16:31:24.660Z,49.63
2023-01-07T16:33:54.416Z,49.76
2023-01-07T16:36:29.117Z,49.92
2023-01-07T16:38:59.365Z,49.95
2023-01-07T16:41:28.815Z,49.32
2023-01-07T16:44:00.058Z,49.81
2023-01-07T16:46:37.148Z,49.94
2023-01-07T16:49:25.993Z,51.80
2023-01-07T16:52:14.764Z,54.16
2023-01-07T16:54:43.525Z,50.93
2023-01-07T16:57:16.294Z,49.47
2023-01-07T16:59:53.835Z,50.04
2023-01-07T17:02:36.957Z,49.73
2023-01-07T17:05:23.519Z,50.20
2023-01-07T17:07:56.195Z,49.14
2023-01-07T17:10:27.346Z,49.41
2023-01-07T17:13:02.854Z,49.64
2023-01-07T17:15:41.391Z,49.64
2023-01-07T17:18:10.972Z,49.41
2023-01-07T17:20:53.884Z,50.15
2023-01-07T17:23:26.570Z,49.90
2023-01-07T17:26:06.457Z,49.70
2023-01-07T17:28:36.289Z,49.61
2023-01-07T17:31:03.747Z,49.46
2023-01-07T17:33:30.258Z,49.49
2023-01-07T17:35:59.469Z,49.46
2023-01-07T17:38:26.156Z,49.47
2023-01-07T17:40:54.533Z,50.58
2023-01-07T17:43:36.891Z,49.16
2023-01-07T17:46:04.790Z,49.72
2023-01-07T17:48:32.707Z,48.98
2023-01-07T17:51:16.103Z,49.36
2023-01-07T17:53:50.621Z,49.86
2023-01-07T17:56:17.298Z,49.71
2023-01-07T17:58:46.743Z,50.58
2023-01-07T18:01:16.744Z,49.45
2023-01-07T18:03:46.754Z,49.08
2023-01-07T18:06:22.346Z,49.32
2023-01-07T18:08:50.238Z,49.47
2023-01-07T18:11:39.046Z,49.25
2023-01-07T18:14:06.161Z,49.08
2023-01-07T18:16:33.345Z,49.60
2023-01-07T18:19:00.119Z,49.58
2023-01-07T18:21:26.628Z,50.45
2023-01-07T18:23:53.272Z,49.58
2023-01-07T18:26:19.765Z,50.55
2023-01-07T18:31:22.379Z,49.40
2023-01-07T18:33:50.286Z,49.34
2023-01-07T18:36:16.993Z,49.23
2023-01-07T18:38:48.257Z,49.37
2023-01-07T18:41:16.231Z,49.15
2023-01-07T18:43:44.065Z,49.17
2023-01-07T18:46:11.801Z,49.61
2023-01-07T18:48:38.494Z,49.31
2023-01-07T18:51:10.927Z,49.26
2023-01-07T18:53:40.117Z,49.24
2023-01-07T18:56:11.945Z,49.24
2023-01-07T18:58:42.146Z,49.79
2023-01-07T19:01:12.269Z,49.48
2023-01-07T19:03:39.071Z,49.12
2023-01-07T19:06:06.749Z,50.42
2023-01-07T19:08:33.466Z,49.14
2023-01-07T19:11:00.014Z,50.25
2023-01-07T19:13:26.913Z,49.54
2023-01-07T19:15:53.570Z,49.46
2023-01-07T19:18:20.079Z,50.17
2023-01-07T19:20:46.782Z,49.39
2023-01-07T19:23:13.408Z,49.10
2023-01-07T19:25:40.060Z,49.31
2023-01-07T19:28:06.690Z,49.29
2023-01-07T19:30:33.281Z,50.44
2023-01-07T19:32:59.917Z,49.30
2023-01-07T19:35:27.818Z,50.20
2023-01-07T19:37:55.026Z,50.61
2023-01-07T19:40:21.682Z,49.28
2023-01-07T19:42:48.934Z,50.25
2023-01-07T19:45:16.002Z,49.63
2023-01-07T19:47:44.058Z,49.65
2023-01-07T19:50:11.236Z,49.40
2023-01-07T19:52:37.957Z,49.72
2023-01-07T19:55:05.051Z,49.60
2023-01-07T19:57:31.835Z,49.83
2023-01-07T19:59:59.089Z,49.79
2023-01-07T20:02:25.917Z,49.76
2023-01-07T20:04:52.680Z,49.53
2023-01-07T20:07:21.147Z,49.57
2023-01-07T20:09:48.475Z,49.76
2023-01-07T20:12:15.258Z,49.60
2023-01-07T20:14:42.433Z,49.51
2023-01-07T20:17:09.069Z,49.82
2023-01-07T20:19:35.560Z,50.51
2023-01-07T20:22:02.190Z,49.52
2023-01-07T20:24:29.739Z,50.19
2023-01-07T20:26:57.590Z,49.79
2023-01-07T20:29:24.212Z,49.89
2023-01-07T20:31:50.765Z,50.59
2023-01-07T20:34:17.444Z,49.75
2023-01-07T20:36:44.980Z,50.75
2023-01-07T20:39:11.855Z,49.84
2023-01-07T20:41:39.011Z,49.79
2023-01-07T20:44:08.673Z,50.02
2023-01-07T20:46:36.111Z,50.08
2023-01-07T20:49:03.846Z,49.96
2023-01-07T20:51:31.171Z,49.97
2023-01-07T20:53:58.377Z,50.17
2023-01-07T20:56:26.407Z,49.88
2023-01-07T20:58:53.118Z,50.08
2023-01-07T21:01:21.041Z,50.80
2023-01-07T21:03:48.873Z,50.09
2023-01-07T21:06:17.717Z,50.24
2023-01-07T21:08:46.741Z,50.30
2023-01-07T21:11:15.139Z,50.14
2023-01-07T21:13:42.083Z,49.88
2023-01-07T21:16:09.085Z,49.91
2023-01-07T21:18:37.034Z,50.24
2023-01-07T21:21:15.005Z,50.21
2023-01-07T21:23:41.724Z,50.07
2023-01-07T21:26:08.993Z,50.54
2023-01-07T21:28:36.223Z,50.09
2023-01-07T21:31:09.051Z,50.30
2023-01-07T21:33:36.412Z,50.15
2023-01-07T21:36:16.653Z,50.53
2023-01-07T21:38:44.417Z,50.02
2023-01-07T21:41:13.968Z,50.43
2023-01-07T21:43:41.963Z,50.28
2023-01-07T21:46:12.080Z,50.25
2023-01-07T21:48:40.790Z,50.56
2023-01-07T21:51:14.796Z,50.33
2023-01-07T21:53:42.245Z,50.43
2023-01-07T21:56:17.481Z,50.64
2023-01-07T21:58:45.920Z,50.67
2023-01-07T22:01:12.766Z,50.23
2023-01-07T22:03:40.025Z,50.40
2023-01-07T22:06:08.936Z,50.49
2023-01-07T22:08:37.006Z,50.63
2023-01-07T22:11:03.633Z,50.46
2023-01-07T22:13:30.274Z,50.82
2023-01-07T22:15:57.076Z,50.48
2023-01-07T22:18:26.849Z,50.47
2023-01-07T22:20:55.768Z,50.36
2023-01-07T22:23:22.705Z,50.70
2023-01-07T22:25:49.815Z,50.61
2023-01-07T22:28:18.213Z,50.23
2023-01-07T22:30:51.761Z,50.46
2023-01-07T22:33:18.249Z,50.43
2023-01-07T22:35:45.480Z,50.42
2023-01-07T22:38:14.460Z,50.67
2023-01-07T22:40:41.426Z,50.54
2023-01-07T22:43:12.406Z,50.58
2023-01-07T22:45:56.428Z,50.61
2023-01-07T22:48:27.159Z,50.36
2023-01-07T22:50:56.943Z,50.78
2023-01-07T22:53:24.353Z,50.67
2023-01-07T22:55:51.039Z,50.74
2023-01-07T22:58:18.020Z,50.69
2023-01-07T23:00:50.752Z,50.70
2023-01-07T23:03:22.758Z,50.53
2023-01-07T23:05:50.321Z,50.51
2023-01-07T23:08:20.026Z,50.55
2023-01-07T23:10:46.839Z,50.50
2023-01-07T23:13:13.379Z,50.45
2023-01-07T23:15:40.647Z,50.36
2023-01-07T23:18:09.789Z,50.73
2023-01-07T23:20:48.681Z,50.88
2023-01-07T23:23:15.271Z,50.76
2023-01-07T23:25:46.424Z,50.94
2023-01-07T23:28:14.175Z,50.86
2023-01-07T23:30:41.001Z,50.76
2023-01-07T23:33:08.166Z,50.48
2023-01-07T23:35:35.294Z,50.82
2023-01-07T23:38:01.853Z,50.95
2023-01-07T23:40:28.312Z,50.62
2023-01-07T23:42:56.631Z,50.75
2023-01-07T23:45:24.101Z,51.21
2023-01-07T23:47:50.546Z,51.08
2023-01-07T23:50:17.117Z,51.20
2023-01-07T23:52:43.582Z,50.86
2023-01-07T23:55:10.650Z,50.94
2023-01-07T23:57:37.199Z,51.01
